Time;durP1;ratioP1;P1;durP2;ratioP2;P2;SDS_P1;SDS_P2;PMS_P1;PMS_P2;Temp;Humidity;BMP_temperature;BMP_pressure;BME280_temperature;BME280_humidity;BME280_pressure;Samples;Min_cycle;Max_cycle;Signal;HPM_P1;HPM_P2
2021/06/29 00:06:45;;;;;;;6.97;6.28;;;20.40;99.90;;;;;;5035196;28;20059;-73
2021/06/29 00:09:10;;;;;;;8.80;5.95;;;20.30;99.90;;;;;;5036232;28;20029;-73
2021/06/29 00:11:38;;;;;;;7.20;5.95;;;20.30;99.90;;;;;;5035312;28;20048;-73
2021/06/29 00:14:04;;;;;;;7.72;6.30;;;20.40;99.90;;;;;;5036027;28;20037;-74
2021/06/29 00:16:29;;;;;;;7.90;6.30;;;20.40;99.90;;;;;;5035868;28;20035;-73
2021/06/29 00:18:59;;;;;;;7.18;6.10;;;20.30;99.90;;;;;;5036260;28;20048;-73
2021/06/29 00:21:25;;;;;;;7.57;6.20;;;20.30;99.90;;;;;;5035790;28;20038;-73
2021/06/29 00:23:51;;;;;;;7.00;5.20;;;20.30;99.90;;;;;;5036033;28;20044;-73
2021/06/29 00:26:19;;;;;;;9.48;6.15;;;20.30;99.90;;;;;;5036677;28;20056;-73
2021/06/29 00:28:44;;;;;;;6.55;5.45;;;20.30;99.90;;;;;;5036066;28;20143;-74
2021/06/29 00:31:10;;;;;;;7.50;5.45;;;20.30;99.90;;;;;;5035037;28;20041;-74
2021/06/29 00:33:38;;;;;;;6.90;5.00;;;20.30;99.90;;;;;;5033224;28;20033;-74
2021/06/29 00:36:05;;;;;;;6.60;4.80;;;20.30;99.90;;;;;;5022865;28;20024;-74
2021/06/29 00:38:35;;;;;;;8.38;5.38;;;20.30;99.90;;;;;;5021559;28;20134;-74
2021/06/29 00:41:00;;;;;;;7.65;5.60;;;20.30;99.90;;;;;;5033189;28;20870;-74
2021/06/29 00:43:28;;;;;;;7.57;5.32;;;20.30;99.90;;;;;;5036567;28;20033;-74
2021/06/29 00:45:54;;;;;;;8.38;5.60;;;20.30;99.90;;;;;;5035668;28;20920;-74
2021/06/29 00:48:19;;;;;;;6.32;4.90;;;20.30;99.90;;;;;;5035920;28;20033;-74
2021/06/29 00:50:45;;;;;;;7.45;5.32;;;20.30;99.90;;;;;;5030581;28;20503;-74
2021/06/29 00:53:11;;;;;;;10.85;5.82;;;20.30;99.90;;;;;;5031959;28;20558;-74
2021/06/29 00:55:38;;;;;;;8.63;5.45;;;20.30;99.90;;;;;;5036037;28;20029;-74
2021/06/29 00:58:10;;;;;;;7.78;5.93;;;20.20;99.90;;;;;;5034039;28;20137;-73
2021/06/29 01:00:39;;;;;;;6.85;5.57;;;20.20;99.90;;;;;;5039123;28;20071;-74
2021/06/29 01:03:05;;;;;;;7.70;5.60;;;20.20;99.90;;;;;;5039698;28;20649;-74
2021/06/29 01:05:30;;;;;;;9.05;5.45;;;20.10;99.90;;;;;;5039649;28;20029;-74
2021/06/29 01:07:56;;;;;;;6.78;4.93;;;20.10;99.90;;;;;;5039342;28;20495;-73
2021/06/29 01:10:22;;;;;;;8.20;6.40;;;20.00;99.90;;;;;;5039796;28;20052;-74
2021/06/29 01:12:48;;;;;;;6.80;5.93;;;20.00;99.90;;;;;;5058080;28;20498;-74
2021/06/29 01:15:13;;;;;;;7.95;6.10;;;19.90;99.90;;;;;;5035541;28;20043;-74
2021/06/29 01:17:41;;;;;;;7.10;4.93;;;19.80;99.90;;;;;;5042274;28;20159;-73
2021/06/29 01:20:14;;;;;;;8.90;5.78;;;19.70;99.90;;;;;;5038694;28;20948;-74
2021/06/29 01:22:40;;;;;;;7.72;5.20;;;19.70;99.90;;;;;;5038991;28;21856;-74
2021/06/29 01:25:09;;;;;;;7.72;5.10;;;19.70;99.90;;;;;;5040256;28;20045;-73
2021/06/29 01:32:30;;;;;;;9.35;5.10;;;19.60;99.90;;;;;;5037961;28;20153;-74
2021/06/29 01:34:57;;;;;;;7.63;5.10;;;19.60;99.90;;;;;;5035084;28;20964;-74
2021/06/29 01:37:25;;;;;;;7.57;4.57;;;19.50;99.90;;;;;;5039415;28;20047;-74
2021/06/29 01:40:05;;;;;;;7.72;5.07;;;19.50;99.90;;;;;;5038500;28;20038;-73
2021/06/29 01:42:33;;;;;;;5.88;4.38;;;19.40;99.90;;;;;;5037303;28;20481;-73
2021/06/29 01:45:02;;;;;;;7.78;4.13;;;19.50;99.90;;;;;;5038767;28;20055;-73
2021/06/29 01:50:15;;;;;;;7.97;3.90;;;19.40;99.90;;;;;;5039286;28;20037;-73
2021/06/29 01:52:40;;;;;;;5.90;4.00;;;19.30;99.90;;;;;;5039369;28;20255;-74
2021/06/29 01:55:06;;;;;;;7.40;4.18;;;19.20;99.90;;;;;;5038624;28;20079;-74
2021/06/29 01:57:36;;;;;;;7.32;4.13;;;19.20;99.90;;;;;;5032652;28;20360;-74
2021/06/29 02:00:07;;;;;;;6.13;3.80;;;19.20;99.90;;;;;;5034401;28;20057;-73
2021/06/29 02:02:35;;;;;;;6.70;3.95;;;19.10;99.90;;;;;;5034553;28;20029;-73
2021/06/29 02:05:00;;;;;;;7.97;3.85;;;19.00;99.90;;;;;;5034243;28;20071;-73
2021/06/29 02:07:26;;;;;;;6.72;4.13;;;19.00;99.90;;;;;;5037842;28;20148;-73
2021/06/29 02:09:51;;;;;;;6.50;3.72;;;19.00;99.90;;;;;;5038389;28;20378;-73
2021/06/29 02:12:19;;;;;;;5.25;3.88;;;18.90;99.90;;;;;;5037358;28;20028;-73
2021/06/29 02:14:45;;;;;;;5.82;3.70;;;18.90;99.90;;;;;;5038459;28;20043;-73
2021/06/29 02:17:13;;;;;;;10.05;3.60;;;18.90;99.90;;;;;;5033399;28;20029;-73
2021/06/29 02:19:39;;;;;;;6.75;4.38;;;18.90;99.90;;;;;;5038653;28;20039;-73
2021/06/29 02:22:06;;;;;;;6.72;3.63;;;18.80;99.90;;;;;;5039066;28;20025;-73
2021/06/29 02:24:34;;;;;;;7.80;3.67;;;18.80;99.90;;;;;;5036914;28;20050;-73
2021/06/29 02:27:00;;;;;;;6.47;4.10;;;18.70;99.90;;;;;;5037665;28;20474;-74
2021/06/29 02:29:26;;;;;;;6.05;3.92;;;18.70;99.90;;;;;;5036853;28;20048;-74
2021/06/29 02:31:52;;;;;;;5.38;3.80;;;18.60;99.90;;;;;;5036232;28;20029;-74
2021/06/29 02:34:17;;;;;;;6.95;3.97;;;18.60;99.90;;;;;;5037913;28;20408;-73
2021/06/29 02:36:43;;;;;;;6.72;3.80;;;18.50;99.90;;;;;;5036350;28;20063;-73
2021/06/29 02:39:11;;;;;;;7.18;3.75;;;18.60;99.90;;;;;;5033076;28;20036;-73
2021/06/29 02:41:41;;;;;;;6.50;3.67;;;18.60;99.90;;;;;;5038983;28;20025;-73
2021/06/29 02:44:08;;;;;;;5.35;4.05;;;18.60;99.90;;;;;;5037051;28;20458;-73
2021/06/29 02:46:36;;;;;;;6.57;4.15;;;18.60;99.90;;;;;;5037852;28;20033;-73
2021/06/29 02:49:02;;;;;;;6.50;4.13;;;18.50;99.90;;;;;;5038108;28;20104;-73
2021/06/29 02:51:30;;;;;;;6.47;4.13;;;18.50;99.90;;;;;;5035644;28;20028;-73
2021/06/29 02:53:58;;;;;;;5.82;3.85;;;18.40;99.90;;;;;;5036812;28;20035;-73
2021/06/29 02:56:39;;;;;;;6.13;3.90;;;18.50;99.90;;;;;;5037121;28;20048;-73
2021/06/29 02:59:09;;;;;;;5.03;3.90;;;18.50;99.90;;;;;;5036746;28;20073;-73
2021/06/29 03:01:35;;;;;;;5.50;3.60;;;18.50;99.90;;;;;;5032628;28;21630;-74
2021/06/29 03:04:01;;;;;;;5.00;3.85;;;18.50;99.90;;;;;;5037316;28;20442;-73
2021/06/29 03:06:26;;;;;;;6.88;4.10;;;18.50;99.90;;;;;;5039851;28;20033;-74
2021/06/29 03:08:54;;;;;;;5.90;3.42;;;18.60;99.90;;;;;;5033333;28;20098;-73
2021/06/29 03:11:20;;;;;;;7.63;4.00;;;18.50;99.90;;;;;;5036491;28;20033;-73
2021/06/29 03:13:45;;;;;;;7.30;4.35;;;18.50;99.90;;;;;;5036953;28;20529;-73
2021/06/29 03:16:11;;;;;;;6.63;4.40;;;18.50;99.90;;;;;;5036530;28;20115;-73
2021/06/29 03:18:39;;;;;;;6.78;3.70;;;18.40;99.90;;;;;;5036623;28;20047;-74
2021/06/29 03:21:07;;;;;;;6.07;4.15;;;18.40;99.90;;;;;;5037486;28;20519;-73
2021/06/29 03:23:37;;;;;;;6.55;4.22;;;18.40;99.90;;;;;;5032033;28;20037;-73
2021/06/29 03:26:05;;;;;;;5.68;4.07;;;18.40;99.90;;;;;;5022335;28;20064;-72
2021/06/29 03:28:33;;;;;;;5.88;4.07;;;18.40;99.90;;;;;;5015923;28;20032;-73
2021/06/29 03:30:59;;;;;;;7.25;4.50;;;18.40;99.90;;;;;;5018108;28;20094;-73
2021/06/29 03:33:25;;;;;;;8.13;5.05;;;18.30;99.90;;;;;;5037265;28;20041;-73
2021/06/29 03:35:50;;;;;;;7.47;5.22;;;18.30;99.90;;;;;;5031713;28;20033;-73
2021/06/29 03:38:18;;;;;;;7.75;5.30;;;18.20;99.90;;;;;;5034060;28;20036;-73
2021/06/29 03:40:44;;;;;;;10.02;4.80;;;18.20;99.90;;;;;;5035335;28;20355;-73
2021/06/29 03:43:10;;;;;;;6.53;5.22;;;18.20;99.90;;;;;;5035906;28;20026;-73
2021/06/29 03:45:35;;;;;;;6.38;4.90;;;18.10;99.90;;;;;;5034783;28;20374;-73
2021/06/29 03:48:04;;;;;;;6.10;4.80;;;18.10;99.90;;;;;;5039014;28;20717;-73
2021/06/29 03:50:32;;;;;;;6.10;5.13;;;18.20;99.90;;;;;;5032471;28;20036;-73
2021/06/29 03:53:00;;;;;;;6.30;5.07;;;18.20;99.90;;;;;;5036797;28;20048;-73
2021/06/29 03:55:27;;;;;;;7.75;5.25;;;18.20;99.90;;;;;;5036716;28;20616;-73
2021/06/29 03:57:56;;;;;;;6.43;5.03;;;18.20;99.90;;;;;;5021372;28;20041;-73
2021/06/29 04:00:22;;;;;;;8.88;5.63;;;18.20;99.90;;;;;;5036136;28;20025;-73
2021/06/29 04:02:47;;;;;;;8.50;5.93;;;18.20;99.90;;;;;;5032293;28;20040;-73
2021/06/29 04:05:17;;;;;;;6.53;5.07;;;18.20;99.90;;;;;;5038420;28;20029;-73
2021/06/29 04:07:46;;;;;;;7.82;5.78;;;18.30;99.90;;;;;;5035575;28;20033;-73
2021/06/29 04:10:12;;;;;;;9.30;5.97;;;18.30;99.90;;;;;;5051023;28;20061;-73
2021/06/29 04:12:38;;;;;;;6.90;5.15;;;18.30;99.90;;;;;;5036028;28;20533;-73
2021/06/29 04:15:07;;;;;;;8.05;5.80;;;18.30;99.90;;;;;;5035476;28;20040;-73
2021/06/29 04:17:33;;;;;;;7.30;5.35;;;18.40;99.90;;;;;;5035674;28;20370;-73
2021/06/29 04:19:59;;;;;;;7.18;5.28;;;18.40;99.90;;;;;;5033139;28;20037;-73
2021/06/29 04:22:26;;;;;;;8.40;4.50;;;18.40;99.90;;;;;;5035558;28;20116;-73
2021/06/29 04:24:57;;;;;;;6.55;5.20;;;18.50;99.90;;;;;;5037555;28;20054;-73
2021/06/29 04:27:25;;;;;;;8.10;4.90;;;18.60;99.90;;;;;;5036523;28;20028;-73
2021/06/29 04:29:52;;;;;;;6.85;5.50;;;18.60;99.90;;;;;;5032213;28;20027;-73
2021/06/29 04:32:20;;;;;;;6.22;5.30;;;18.60;99.90;;;;;;5023331;28;20108;-73
2021/06/29 04:34:46;;;;;;;6.70;5.40;;;18.70;99.90;;;;;;5037086;28;20121;-73
2021/06/29 04:37:11;;;;;;;5.68;4.82;;;18.70;99.90;;;;;;5037808;28;20038;-73
2021/06/29 04:39:43;;;;;;;8.00;5.70;;;18.70;99.90;;;;;;5040689;28;20056;-73
2021/06/29 04:42:09;;;;;;;6.07;4.88;;;18.70;99.90;;;;;;5038123;28;20033;-73
2021/06/29 04:44:38;;;;;;;8.20;6.65;;;18.80;99.90;;;;;;5038914;28;20048;-73
2021/06/29 04:47:05;;;;;;;11.10;9.90;;;18.70;99.90;;;;;;5022014;28;20037;-73
2021/06/29 04:49:34;;;;;;;10.05;8.48;;;18.70;99.90;;;;;;5023871;28;20044;-73
2021/06/29 04:52:00;;;;;;;10.40;8.93;;;18.70;99.90;;;;;;5040186;28;20059;-73
2021/06/29 04:54:25;;;;;;;9.60;8.60;;;18.70;99.90;;;;;;5042055;28;20119;-73
2021/06/29 04:56:51;;;;;;;7.85;6.25;;;18.80;99.90;;;;;;5025376;28;20898;-73
2021/06/29 04:59:21;;;;;;;11.45;8.63;;;18.80;99.90;;;;;;5030450;28;20102;-74
2021/06/29 05:01:47;;;;;;;15.45;13.85;;;18.90;99.90;;;;;;5039264;28;20037;-73
2021/06/29 05:04:12;;;;;;;17.02;15.25;;;18.70;99.90;;;;;;5039856;28;20024;-73
2021/06/29 05:06:38;;;;;;;14.20;12.18;;;18.80;99.90;;;;;;5035676;28;20037;-74
2021/06/29 05:09:04;;;;;;;20.60;16.70;;;18.90;99.90;;;;;;5040738;28;20418;-73
2021/06/29 05:11:29;;;;;;;19.38;16.35;;;18.80;99.90;;;;;;5057296;28;20112;-73
2021/06/29 05:13:57;;;;;;;20.00;17.83;;;18.90;99.90;;;;;;5038247;28;20123;-73
2021/06/29 05:16:23;;;;;;;22.20;19.80;;;18.90;99.90;;;;;;5038359;28;20048;-75
2021/06/29 05:18:48;;;;;;;21.73;19.50;;;18.80;99.90;;;;;;5039463;28;20033;-73
2021/06/29 05:21:14;;;;;;;21.98;18.33;;;18.60;99.90;;;;;;5035261;28;20142;-73
2021/06/29 05:23:42;;;;;;;23.23;19.35;;;18.70;99.90;;;;;;5036441;28;20033;-73
2021/06/29 05:26:10;;;;;;;21.50;18.45;;;18.60;99.90;;;;;;5038921;28;20052;-73
2021/06/29 05:28:36;;;;;;;22.27;19.98;;;18.60;99.90;;;;;;5038170;28;20044;-73
2021/06/29 05:31:01;;;;;;;22.70;20.30;;;18.70;99.90;;;;;;5034949;28;20033;-73
2021/06/29 05:33:27;;;;;;;24.80;21.20;;;18.70;99.90;;;;;;5038809;28;20375;-73
2021/06/29 05:35:52;;;;;;;23.95;21.40;;;18.70;99.90;;;;;;5038038;28;20028;-73
2021/06/29 05:38:20;;;;;;;22.58;19.42;;;18.70;99.90;;;;;;5038744;28;20033;-73
2021/06/29 05:40:46;;;;;;;22.92;19.35;;;18.70;99.90;;;;;;5039081;28;20087;-73
2021/06/29 05:43:11;;;;;;;24.95;22.13;;;18.80;99.90;;;;;;5056728;28;20037;-73
2021/06/29 05:45:39;;;;;;;24.85;21.05;;;18.80;99.90;;;;;;5037223;28;20415;-73
2021/06/29 05:48:05;;;;;;;23.02;20.50;;;18.80;99.90;;;;;;5037968;28;20044;-73
2021/06/29 05:50:33;;;;;;;24.30;21.33;;;18.80;99.90;;;;;;5037844;28;20033;-73
2021/06/29 05:53:01;;;;;;;26.73;21.75;;;18.80;99.90;;;;;;5038813;28;20044;-73
2021/06/29 05:55:29;;;;;;;25.40;22.52;;;18.80;99.90;;;;;;5040677;28;20037;-73
2021/06/29 05:57:55;;;;;;;26.30;23.48;;;18.80;99.90;;;;;;5037550;28;20122;-73
2021/06/29 06:00:23;;;;;;;27.38;24.48;;;18.90;99.90;;;;;;5038473;28;20021;-73
2021/06/29 06:02:51;;;;;;;27.30;23.95;;;18.80;99.90;;;;;;5037737;28;20050;-73
2021/06/29 06:05:19;;;;;;;28.08;22.95;;;18.70;99.90;;;;;;5036849;28;20647;-73
2021/06/29 06:07:47;;;;;;;31.23;24.75;;;18.70;99.90;;;;;;5044260;28;20379;-71
2021/06/29 06:10:14;;;;;;;26.10;23.48;;;18.80;99.90;;;;;;5042062;28;20029;-70
2021/06/29 06:12:39;;;;;;;24.50;20.98;;;18.70;99.90;;;;;;5040956;28;20017;-73
2021/06/29 06:15:06;;;;;;;26.33;23.67;;;18.80;99.90;;;;;;5039126;28;20474;-73
2021/06/29 06:17:32;;;;;;;25.20;22.42;;;18.80;99.90;;;;;;5057855;28;20041;-73
2021/06/29 06:19:58;;;;;;;24.55;22.10;;;18.80;99.90;;;;;;5041015;28;20024;-73
2021/06/29 06:22:26;;;;;;;22.13;19.83;;;18.80;99.90;;;;;;5042786;28;20021;-70
2021/06/29 06:24:51;;;;;;;23.35;20.95;;;18.80;99.90;;;;;;5039141;28;20071;-70
2021/06/29 06:27:18;;;;;;;24.65;22.13;;;18.90;99.90;;;;;;5043414;28;20666;-70
2021/06/29 06:29:44;;;;;;;23.63;21.23;;;19.00;99.90;;;;;;5041498;28;20020;-73
2021/06/29 06:32:12;;;;;;;23.55;21.05;;;19.00;99.90;;;;;;5040265;28;20438;-73
2021/06/29 06:34:40;;;;;;;22.40;20.20;;;19.10;99.90;;;;;;5041196;28;20037;-73
2021/06/29 06:37:06;;;;;;;22.17;19.92;;;19.10;99.90;;;;;;5043489;28;20514;-71
2021/06/29 06:39:34;;;;;;;21.05;18.88;;;19.20;99.90;;;;;;5042637;28;20148;-72
2021/06/29 06:42:00;;;;;;;20.92;18.80;;;19.20;99.90;;;;;;5042211;28;20030;-73
2021/06/29 06:44:28;;;;;;;20.55;18.42;;;19.30;99.90;;;;;;5039557;28;20048;-73
2021/06/29 06:46:54;;;;;;;20.75;18.73;;;19.40;99.90;;;;;;5011044;28;20087;-73
2021/06/29 06:49:19;;;;;;;20.23;18.17;;;19.50;99.90;;;;;;5042031;28;20029;-74
2021/06/29 06:51:47;;;;;;;22.02;19.65;;;19.50;99.90;;;;;;5042501;28;20094;-73
2021/06/29 06:54:13;;;;;;;19.42;17.58;;;19.50;99.90;;;;;;5026322;28;20363;-73
2021/06/29 06:56:38;;;;;;;19.90;17.92;;;19.60;99.90;;;;;;5041275;28;20028;-73
2021/06/29 06:59:04;;;;;;;19.92;17.95;;;19.50;99.90;;;;;;5025937;28;20060;-73
2021/06/29 07:01:30;;;;;;;19.13;17.05;;;19.60;99.90;;;;;;5039309;28;20403;-73
2021/06/29 07:03:55;;;;;;;20.27;18.27;;;19.70;99.90;;;;;;5041098;28;20669;-74
2021/06/29 07:06:21;;;;;;;20.08;18.38;;;19.70;99.90;;;;;;5041784;28;20025;-74
2021/06/29 07:08:49;;;;;;;17.20;15.70;;;19.70;99.90;;;;;;5025219;28;20021;-73
2021/06/29 07:11:15;;;;;;;16.33;14.82;;;19.70;99.90;;;;;;5040908;28;20045;-71
2021/06/29 07:13:42;;;;;;;19.08;17.08;;;19.70;99.90;;;;;;5039481;28;20471;-74
2021/06/29 07:16:15;;;;;;;17.25;15.65;;;19.70;99.90;;;;;;5026234;28;20029;-74
2021/06/29 07:18:43;;;;;;;16.33;14.75;;;19.70;99.90;;;;;;5040565;28;20025;-74
2021/06/29 07:21:09;;;;;;;18.63;16.88;;;19.60;99.90;;;;;;5043405;28;20029;-74
2021/06/29 07:23:37;;;;;;;16.50;15.00;;;19.80;99.90;;;;;;5041486;28;20035;-75
2021/06/29 07:26:03;;;;;;;16.60;15.00;;;19.80;99.90;;;;;;5040498;28;20029;-74
2021/06/29 07:28:29;;;;;;;15.52;13.93;;;19.90;99.90;;;;;;5023257;28;20052;-74
2021/06/29 07:30:54;;;;;;;14.93;13.52;;;20.00;99.90;;;;;;5039875;28;20397;-74
2021/06/29 07:33:22;;;;;;;15.90;14.40;;;20.10;99.90;;;;;;5039071;28;20127;-75
2021/06/29 07:35:48;;;;;;;14.80;13.40;;;20.20;99.90;;;;;;5042923;28;20025;-75
2021/06/29 07:38:14;;;;;;;14.80;13.48;;;20.40;99.90;;;;;;5038712;28;20039;-75
2021/06/29 07:40:39;;;;;;;14.00;12.70;;;20.30;99.90;;;;;;5023143;28;20446;-75
2021/06/29 07:43:07;;;;;;;12.70;11.50;;;20.40;99.90;;;;;;5041294;28;20095;-75
2021/06/29 07:45:33;;;;;;;14.45;13.05;;;20.50;99.90;;;;;;5040964;28;20464;-74
2021/06/29 07:48:02;;;;;;;12.98;11.77;;;20.60;99.90;;;;;;5041610;28;20051;-75
2021/06/29 07:50:31;;;;;;;12.00;10.82;;;20.80;99.90;;;;;;5042444;28;20021;-74
2021/06/29 07:53:02;;;;;;;12.75;10.10;;;21.00;99.90;;;;;;5038262;28;20110;-74
2021/06/29 07:55:27;;;;;;;12.90;9.60;;;21.10;99.90;;;;;;5059243;28;20021;-75
2021/06/29 07:57:56;;;;;;;11.07;9.35;;;21.30;99.90;;;;;;5038982;28;21989;-76
2021/06/29 08:00:24;;;;;;;11.68;9.40;;;21.30;99.90;;;;;;5040854;28;20021;-76
2021/06/29 08:02:50;;;;;;;11.60;10.40;;;21.10;99.90;;;;;;5040510;28;20108;-75
2021/06/29 08:05:20;;;;;;;10.18;9.07;;;21.20;99.90;;;;;;5038929;28;20466;-76
2021/06/29 08:07:46;;;;;;;10.45;9.45;;;21.20;99.90;;;;;;5025370;28;20040;-76
2021/06/29 08:10:12;;;;;;;10.57;8.93;;;21.30;99.90;;;;;;5043593;28;20029;-76
2021/06/29 08:12:40;;;;;;;10.15;8.60;;;21.20;99.90;;;;;;5044175;28;20037;-73
2021/06/29 08:15:06;;;;;;;11.02;8.45;;;21.20;99.90;;;;;;5043213;28;20458;-76
2021/06/29 08:17:34;;;;;;;9.85;8.95;;;21.10;99.90;;;;;;5043253;28;20360;-77
2021/06/29 08:20:00;;;;;;;9.38;7.90;;;21.40;99.90;;;;;;5062435;28;20044;-78
2021/06/29 08:22:26;;;;;;;8.20;7.40;;;21.40;99.90;;;;;;5045929;28;20024;-79
2021/06/29 08:24:51;;;;;;;8.25;7.25;;;21.30;99.90;;;;;;5044056;28;20683;-78
2021/06/29 08:27:19;;;;;;;7.50;6.75;;;21.40;99.90;;;;;;5043689;28;20028;-78
2021/06/29 08:29:45;;;;;;;8.20;6.72;;;21.50;99.90;;;;;;5045808;28;20033;-80
2021/06/29 08:32:11;;;;;;;8.38;6.85;;;21.50;99.90;;;;;;5042310;28;20447;-78
2021/06/29 08:34:37;;;;;;;7.63;6.53;;;21.60;99.90;;;;;;5043825;28;20025;-77
2021/06/29 08:37:05;;;;;;;8.75;6.07;;;21.60;99.90;;;;;;5044724;28;20390;-78
2021/06/29 08:39:31;;;;;;;8.90;6.80;;;21.70;99.90;;;;;;5043461;28;20021;-77
2021/06/29 08:41:59;;;;;;;8.93;7.05;;;21.60;99.90;;;;;;5042223;28;20035;-78
2021/06/29 08:44:27;;;;;;;8.63;6.95;;;21.50;99.90;;;;;;5043677;28;20032;-78
2021/06/29 08:46:52;;;;;;;9.52;6.55;;;21.40;99.90;;;;;;5015355;28;20033;-76
2021/06/29 08:49:18;;;;;;;8.05;6.25;;;21.60;99.90;;;;;;5045598;28;20034;-77
2021/06/29 08:51:44;;;;;;;7.80;6.20;;;21.70;99.90;;;;;;5042717;28;20033;-78
2021/06/29 08:54:12;;;;;;;6.70;5.70;;;22.00;99.90;;;;;;5026492;28;20638;-78
2021/06/29 08:56:42;;;;;;;6.68;5.60;;;22.00;99.90;;;;;;5017365;28;20043;-78
2021/06/29 08:59:09;;;;;;;6.93;6.20;;;22.20;99.90;;;;;;5042655;28;20025;-77
2021/06/29 09:01:34;;;;;;;9.07;6.25;;;22.30;99.90;;;;;;5041775;28;20017;-77
2021/06/29 09:04:00;;;;;;;7.65;6.40;;;22.30;99.90;;;;;;5045753;28;20025;-79
2021/06/29 09:06:33;;;;;;;6.65;5.40;;;22.10;99.90;;;;;;5044301;28;20431;-78
2021/06/29 09:09:27;;;;;;;8.90;5.85;;;22.20;99.90;;;;;;5031698;28;20035;-75
2021/06/29 09:11:54;;;;;;;10.32;8.93;;;22.40;99.90;;;;;;5039751;28;20116;-74
2021/06/29 09:14:27;;;;;;;7.75;6.60;;;22.60;99.90;;;;;;5025793;28;20025;-78
2021/06/29 09:16:52;;;;;;;7.15;6.18;;;22.60;99.90;;;;;;5026889;28;20397;-77
2021/06/29 09:19:36;;;;;;;10.63;6.15;;;22.50;99.90;;;;;;5031899;28;20029;-77
2021/06/29 09:22:26;;;;;;;7.78;6.40;;;22.60;99.90;;;;;;5046663;28;20423;-77
2021/06/29 09:24:52;;;;;;;7.50;6.18;;;22.50;99.90;;;;;;5044641;28;20049;-78
2021/06/29 09:27:43;;;;;;;7.63;5.90;;;22.40;99.90;;;;;;5032265;28;20031;-78
2021/06/29 09:30:46;;;;;;;8.00;5.47;;;22.40;99.90;;;;;;5033865;28;20025;-77
2021/06/29 09:33:14;;;;;;;6.15;5.28;;;22.60;99.90;;;;;;5031236;28;20111;-77
2021/06/29 09:35:41;;;;;;;6.55;4.93;;;22.60;99.90;;;;;;5043454;28;20053;-76
2021/06/29 09:38:08;;;;;;;6.00;4.63;;;22.60;99.90;;;;;;5039530;28;20508;-77
2021/06/29 09:40:34;;;;;;;6.85;4.63;;;22.60;99.90;;;;;;5039255;28;20712;-77
2021/06/29 09:43:26;;;;;;;7.53;4.78;;;22.80;99.90;;;;;;5040159;28;20033;-77
2021/06/29 09:45:55;;;;;;;7.85;5.20;;;22.90;99.90;;;;;;5041319;28;20037;-77
2021/06/29 09:48:34;;;;;;;7.75;5.43;;;22.90;99.90;;;;;;5041924;28;20028;-77
2021/06/29 09:51:07;;;;;;;8.55;4.85;;;23.10;99.90;;;;;;5039557;28;20026;-76
2021/06/29 09:53:39;;;;;;;6.25;4.70;;;23.40;99.90;;;;;;5045309;28;20438;-77
2021/06/29 09:56:11;;;;;;;5.65;4.50;;;23.50;99.90;;;;;;5026658;28;20098;-76
2021/06/29 09:58:39;;;;;;;;;;;23.60;99.90;;;;;;5043259;28;20033;-77
2021/06/29 10:01:05;;;;;;;7.18;5.07;;;23.70;99.90;;;;;;5038060;28;20561;-78
2021/06/29 10:03:35;;;;;;;6.80;5.00;;;23.60;99.90;;;;;;5042797;28;20029;-75
2021/06/29 10:06:03;;;;;;;7.72;5.55;;;23.50;99.90;;;;;;5044959;28;20032;-77
2021/06/29 10:08:33;;;;;;;8.48;4.95;;;23.50;99.90;;;;;;5042216;28;20025;-77
2021/06/29 10:11:21;;;;;;;6.82;5.25;;;23.70;99.90;;;;;;5042619;28;20525;-75
2021/06/29 10:13:59;;;;;;;8.07;5.15;;;23.80;99.90;;;;;;5044245;28;20028;-76
2021/06/29 10:16:33;;;;;;;7.50;5.05;;;23.90;99.90;;;;;;5040023;28;20025;-77
2021/06/29 10:21:26;;;;;;;6.20;4.47;;;23.80;99.90;;;;;;5041105;28;20022;-76
2021/06/29 10:23:55;;;;;;;5.88;4.25;;;24.00;99.90;;;;;;5039598;28;20100;-76
2021/06/29 10:26:21;;;;;;;6.60;4.50;;;24.30;99.90;;;;;;5039453;28;20116;-78
2021/06/29 10:28:50;;;;;;;6.40;4.72;;;24.20;99.90;;;;;;5041256;28;20105;-76
2021/06/29 10:31:19;;;;;;;7.57;5.43;;;24.20;99.90;;;;;;5038593;28;20029;-76
2021/06/29 10:33:45;;;;;;;5.68;4.03;;;24.30;99.90;;;;;;5039532;28;20103;-76
2021/06/29 10:36:11;;;;;;;5.43;4.38;;;24.30;99.90;;;;;;5029825;28;20026;-76
2021/06/29 10:38:39;;;;;;;5.50;4.13;;;24.30;99.90;;;;;;5040243;28;20036;-76
2021/06/29 10:41:04;;;;;;;6.55;4.28;;;24.50;99.90;;;;;;5041128;28;20036;-76
2021/06/29 10:43:33;;;;;;;6.38;4.38;;;24.50;99.90;;;;;;5041963;28;20029;-76
2021/06/29 10:46:01;;;;;;;6.57;4.45;;;24.60;99.90;;;;;;5025462;28;20642;-76
2021/06/29 10:48:27;;;;;;;5.15;3.53;;;24.70;99.90;;;;;;5041915;28;20044;-76
2021/06/29 10:50:54;;;;;;;6.00;4.82;;;24.90;99.90;;;;;;5024042;28;20034;-77
2021/06/29 10:53:43;;;;;;;5.95;3.67;;;24.70;93.40;;;;;;5037921;28;20102;-76
2021/06/29 10:56:11;;;;;;;7.07;3.90;;;24.80;98.90;;;;;;4330371;28;10000196;-74
2021/06/29 10:58:51;;;;;;;7.47;4.25;;;24.80;99.90;;;;;;5035526;28;20040;-76
2021/06/29 11:01:32;;;;;;;6.60;3.70;;;24.80;98.30;;;;;;5035177;28;20041;-76
2021/06/29 11:04:01;;;;;;;5.75;3.67;;;24.90;99.90;;;;;;5039844;28;20032;-76
2021/06/29 11:06:42;;;;;;;6.97;4.55;;;25.00;99.80;;;;;;5035650;28;20348;-79
2021/06/29 11:09:10;;;;;;;6.22;3.88;;;25.00;94.50;;;;;;5034774;28;20093;-77
2021/06/29 11:11:35;;;;;;;5.57;3.63;;;24.90;99.90;;;;;;5024797;28;20065;-77
2021/06/29 11:14:06;;;;;;;5.55;3.60;;;24.90;99.90;;;;;;4690861;28;10000477;-77
2021/06/29 11:16:53;;;;;;;5.50;3.80;;;25.20;99.90;;;;;;5007038;28;20034;-77
2021/06/29 11:19:20;;;;;;;5.63;3.78;;;25.40;99.00;;;;;;5037494;28;20029;-77
2021/06/29 11:21:45;;;;;;;5.68;4.22;;;25.40;99.90;;;;;;5003586;28;20120;-77
2021/06/29 11:25:01;;;;;;;7.25;4.05;;;25.40;99.90;;;;;;5037230;28;20469;-77
2021/06/29 11:27:59;;;;;;;5.30;4.32;;;25.40;98.50;;;;;;4999683;28;20057;-77
2021/06/29 11:30:50;;;;;;;5.93;4.43;;;25.20;90.40;;;;;;4998247;28;20112;-78
2021/06/29 11:33:33;;;;;;;6.40;3.67;;;25.30;94.70;;;;;;5000185;28;20375;-76
2021/06/29 11:35:58;;;;;;;4.97;4.00;;;25.40;93.60;;;;;;5005017;28;20030;-78
2021/06/29 11:38:42;;;;;;;5.75;3.92;;;25.20;91.90;;;;;;5002174;28;20045;-77
2021/06/29 11:41:31;;;;;;;6.55;5.07;;;25.20;91.20;;;;;;5002759;28;20022;-76
2021/06/29 11:44:06;;;;;;;6.00;4.45;;;25.20;90.40;;;;;;5002524;28;20049;-77
2021/06/29 11:46:55;;;;;;;6.82;4.38;;;25.10;94.90;;;;;;5003543;28;20100;-76
2021/06/29 11:49:39;;;;;;;6.50;4.85;;;25.20;98.50;;;;;;4988437;28;20065;-74
2021/06/29 11:52:12;;;;;;;6.57;5.15;;;25.20;94.20;;;;;;5001901;28;20045;-73
2021/06/29 11:54:39;;;;;;;6.28;5.13;;;24.90;92.80;;;;;;5002893;28;20064;-78
2021/06/29 11:57:17;;;;;;;6.03;4.88;;;24.90;96.20;;;;;;4989669;28;20046;-78
2021/06/29 11:59:43;;;;;;;7.13;5.00;;;25.00;95.80;;;;;;5040601;28;20045;-78
2021/06/29 12:02:13;;;;;;;10.15;5.07;;;24.90;96.80;;;;;;5022179;28;20581;-78
2021/06/29 12:05:02;;;;;;;5.93;4.47;;;24.80;95.40;;;;;;5038943;28;20039;-78
2021/06/29 12:07:36;;;;;;;5.47;4.40;;;24.80;96.30;;;;;;5034618;28;20059;-78
2021/06/29 12:10:11;;;;;;;5.97;4.68;;;24.80;97.70;;;;;;5040995;28;20066;-78
2021/06/29 12:12:40;;;;;;;5.57;4.00;;;24.70;90.90;;;;;;5039421;28;20466;-78
2021/06/29 12:15:15;;;;;;;5.35;4.15;;;24.90;93.70;;;;;;5038573;28;20533;-78
2021/06/29 12:17:49;;;;;;;5.18;4.00;;;25.20;97.60;;;;;;5044168;28;20447;-78
2021/06/29 12:20:16;;;;;;;5.70;4.70;;;25.40;97.90;;;;;;5038041;28;20029;-78
2021/06/29 12:22:44;;;;;;;6.43;4.80;;;25.60;94.60;;;;;;5036246;28;20033;-78
2021/06/29 12:25:20;;;;;;;6.65;4.60;;;25.70;89.00;;;;;;5038703;28;20056;-79
2021/06/29 12:27:50;;;;;;;5.35;4.43;;;25.60;90.80;;;;;;5039909;28;20089;-78
2021/06/29 12:30:23;;;;;;;6.65;4.90;;;25.50;93.00;;;;;;5042112;28;20083;-79
2021/06/29 12:32:48;;;;;;;5.78;4.53;;;25.50;92.20;;;;;;5039742;28;20182;-79
2021/06/29 12:35:18;;;;;;;7.60;4.70;;;25.70;95.30;;;;;;5039898;28;20656;-76
2021/06/29 12:38:07;;;;;;;6.97;4.95;;;25.60;90.60;;;;;;5022477;28;20116;-81
2021/06/29 12:40:35;;;;;;;6.78;4.57;;;25.80;91.30;;;;;;5039915;28;20060;-80
2021/06/29 12:43:20;;;;;;;5.60;4.63;;;25.80;90.70;;;;;;5039768;28;20382;-78
2021/06/29 12:45:46;;;;;;;6.03;3.72;;;25.90;90.10;;;;;;5042207;28;20070;-81
2021/06/29 12:48:11;;;;;;;6.70;3.70;;;25.50;88.80;;;;;;5029673;28;20508;-80
2021/06/29 12:50:37;;;;;;;6.00;3.20;;;25.40;89.20;;;;;;5036961;28;20033;-80
2021/06/29 12:53:03;;;;;;;4.60;3.10;;;25.20;90.30;;;;;;5024328;28;20510;-80
2021/06/29 12:55:31;;;;;;;5.13;3.10;;;24.90;88.20;;;;;;5040147;28;20037;-76
2021/06/29 12:58:03;;;;;;;6.03;3.00;;;24.60;86.10;;;;;;5045525;28;20067;-79
2021/06/29 13:00:39;;;;;;;4.90;2.78;;;23.90;84.00;;;;;;5031048;28;20036;-77
2021/06/29 13:03:08;;;;;;;4.70;2.90;;;23.70;87.90;;;;;;5044938;28;20033;-77
2021/06/29 13:05:33;;;;;;;4.30;2.88;;;23.60;86.40;;;;;;5041208;28;20079;-76